Time;durP1;ratioP1;P1;durP2;ratioP2;P2;SDS_P1;SDS_P2;PMS_P1;PMS_P2;Temp;Humidity;BMP_temperature;BMP_pressure;BME280_temperature;BME280_humidity;BME280_pressure;Samples;Min_cycle;Max_cycle;Signal;HPM_P1;HPM_P2
2022/12/28 00:01:06;;;;;;;5.30;2.30;;;5.30;98.40;;;;;;5007091;28;20539;-76
2022/12/28 00:03:31;;;;;;;7.77;2.40;;;5.20;97.90;;;;;;5009214;28;21006;-77
2022/12/28 00:05:57;;;;;;;5.43;2.47;;;5.30;98.20;;;;;;5013557;28;20429;-78
2022/12/28 00:08:22;;;;;;;6.37;2.20;;;5.30;97.90;;;;;;5009407;28;20183;-78
2022/12/28 00:10:48;;;;;;;6.70;4.07;;;5.30;98.10;;;;;;5008090;28;20168;-78
2022/12/28 00:13:14;;;;;;;6.70;2.87;;;5.30;97.50;;;;;;5013130;28;20221;-76
2022/12/28 00:15:39;;;;;;;7.30;2.37;;;5.30;97.40;;;;;;5013216;28;20214;-78
2022/12/28 00:18:05;;;;;;;5.07;2.23;;;5.30;97.70;;;;;;5011028;28;20175;-78
2022/12/28 00:20:30;;;;;;;5.20;1.90;;;5.30;97.80;;;;;;5010610;28;20186;-76
2022/12/28 00:22:56;;;;;;;4.83;3.90;;;5.30;97.80;;;;;;5008799;28;20203;-77
2022/12/28 00:25:21;;;;;;;7.70;2.87;;;5.30;97.90;;;;;;5012897;28;20179;-78
2022/12/28 00:27:47;;;;;;;3.20;1.80;;;5.30;97.50;;;;;;5012751;28;20182;-77
2022/12/28 00:30:12;;;;;;;9.23;3.13;;;5.30;97.60;;;;;;4994894;28;20167;-78
2022/12/28 00:32:38;;;;;;;6.47;2.20;;;5.30;97.50;;;;;;5012330;28;20238;-77
2022/12/28 00:35:04;;;;;;;6.93;2.50;;;5.30;97.50;;;;;;5010201;28;20175;-79
2022/12/28 00:37:32;;;;;;;10.00;2.83;;;5.40;97.80;;;;;;5011131;28;20179;-79
2022/12/28 00:39:58;;;;;;;7.10;1.93;;;5.40;97.70;;;;;;5010292;28;20433;-78
2022/12/28 00:42:23;;;;;;;9.10;2.60;;;5.40;98.00;;;;;;5007702;28;20760;-78
2022/12/28 00:44:49;;;;;;;6.00;2.50;;;5.40;98.00;;;;;;5009817;28;20175;-78
2022/12/28 00:47:15;;;;;;;5.87;2.30;;;5.40;98.00;;;;;;4998266;28;20182;-77
2022/12/28 00:49:40;;;;;;;5.33;2.13;;;5.40;98.40;;;;;;5005537;28;20446;-78
2022/12/28 00:52:06;;;;;;;7.13;2.77;;;5.40;98.70;;;;;;4993351;28;20174;-79
2022/12/28 00:54:32;;;;;;;5.40;2.40;;;5.40;98.90;;;;;;4992339;28;20186;-79
2022/12/28 00:56:57;;;;;;;6.60;3.27;;;5.40;99.10;;;;;;5010937;28;20191;-78
2022/12/28 00:59:23;;;;;;;6.07;2.20;;;5.30;99.60;;;;;;5014085;28;20182;-79
2022/12/28 01:01:48;;;;;;;8.40;2.53;;;5.30;99.80;;;;;;5006484;28;20218;-79
2022/12/28 01:04:14;;;;;;;11.63;2.90;;;5.20;99.90;;;;;;5001324;28;20183;-78
2022/12/28 01:06:51;;;;;;;8.13;2.60;;;5.20;99.90;;;;;;5008370;28;20177;-79
2022/12/28 01:09:17;;;;;;;11.17;3.30;;;5.20;99.90;;;;;;5012756;28;20441;-78
2022/12/28 01:11:42;;;;;;;9.60;2.90;;;5.10;99.90;;;;;;4991344;28;20427;-77
2022/12/28 01:14:08;;;;;;;4.30;2.50;;;5.10;99.90;;;;;;5007362;28;20258;-78
2022/12/28 01:16:35;;;;;;;6.03;2.93;;;5.10;99.90;;;;;;5004921;28;20199;-78
2022/12/28 01:19:04;;;;;;;4.50;2.57;;;5.10;99.90;;;;;;5011587;28;20171;-78
2022/12/28 01:21:32;;;;;;;9.67;3.33;;;5.10;99.90;;;;;;5007332;28;20423;-78
2022/12/28 01:24:00;;;;;;;7.20;3.20;;;5.10;99.90;;;;;;4994296;28;20466;-79
2022/12/28 01:26:27;;;;;;;9.00;3.63;;;5.10;99.90;;;;;;5009418;28;20520;-77
2022/12/28 01:28:54;;;;;;;9.57;3.30;;;5.10;99.90;;;;;;5012544;28;20429;-77
2022/12/28 01:31:21;;;;;;;5.10;3.53;;;5.10;99.90;;;;;;5012963;28;20433;-78
2022/12/28 01:33:47;;;;;;;6.67;2.97;;;5.00;99.90;;;;;;4998145;28;20460;-77
2022/12/28 01:36:17;;;;;;;13.47;3.97;;;5.10;99.90;;;;;;5009713;28;20430;-79
2022/12/28 01:38:44;;;;;;;8.83;2.80;;;5.10;99.90;;;;;;4990286;28;20446;-77
2022/12/28 01:41:15;;;;;;;7.20;3.20;;;5.10;99.90;;;;;;5003911;28;20426;-77
2022/12/28 01:44:06;;;;;;;9.60;3.80;;;5.10;99.90;;;;;;5006839;28;20473;-78
2022/12/28 01:46:40;;;;;;;9.50;3.33;;;5.10;99.90;;;;;;4990389;28;20432;-77
2022/12/28 01:49:12;;;;;;;11.33;4.30;;;5.10;99.90;;;;;;5001928;28;20428;-80
2022/12/28 01:51:52;;;;;;;6.40;3.10;;;5.10;99.90;;;;;;5006908;28;20488;-78
2022/12/28 01:54:21;;;;;;;9.63;3.70;;;5.00;99.90;;;;;;4985810;28;20496;-78
2022/12/28 01:56:47;;;;;;;9.13;3.97;;;5.00;99.90;;;;;;5005982;28;20838;-76
2022/12/28 01:59:16;;;;;;;5.40;4.07;;;5.00;99.90;;;;;;4985657;28;20433;-76
2022/12/28 02:01:41;;;;;;;6.40;3.50;;;5.00;99.90;;;;;;5005347;28;20421;-78
2022/12/28 02:04:07;;;;;;;9.70;3.83;;;5.00;99.90;;;;;;5006394;28;20457;-78
2022/12/28 02:06:33;;;;;;;8.33;3.73;;;5.00;99.90;;;;;;5010983;28;20263;-77
2022/12/28 02:09:02;;;;;;;7.33;3.27;;;5.00;99.90;;;;;;5006475;28;20461;-76
2022/12/28 02:11:28;;;;;;;13.93;3.87;;;5.00;99.90;;;;;;5008601;28;20177;-78
2022/12/28 02:13:54;;;;;;;7.70;4.43;;;5.00;99.90;;;;;;5007862;28;20441;-77
2022/12/28 02:16:20;;;;;;;6.33;3.07;;;5.00;99.90;;;;;;4991807;28;20449;-78
2022/12/28 02:18:47;;;;;;;8.80;4.47;;;5.00;99.90;;;;;;4992145;28;20430;-77
2022/12/28 02:21:56;;;;;;;7.07;3.97;;;4.90;99.90;;;;;;5010103;28;20168;-78
2022/12/28 02:24:39;;;;;;;10.27;4.80;;;5.00;99.90;;;;;;4998591;28;20457;-78
2022/12/28 02:27:32;;;;;;;7.20;4.93;;;5.00;99.90;;;;;;5004772;28;20909;-77
2022/12/28 02:30:08;;;;;;;7.70;4.97;;;5.10;99.90;;;;;;5004688;28;20426;-77
2022/12/28 02:32:49;;;;;;;6.30;3.50;;;5.10;99.90;;;;;;5008261;28;20445;-76
2022/12/28 02:35:33;;;;;;;9.87;3.40;;;5.10;99.90;;;;;;4994353;28;20434;-78
2022/12/28 02:38:26;;;;;;;4.50;3.30;;;5.20;99.90;;;;;;4991263;28;20486;-78
2022/12/28 02:41:03;;;;;;;8.93;4.20;;;5.10;99.90;;;;;;5012418;28;21527;-79
2022/12/28 02:43:32;;;;;;;7.80;4.73;;;5.10;99.90;;;;;;5010011;28;20493;-78
2022/12/28 02:51:53;;;;;;;11.97;4.23;;;5.20;99.90;;;;;;5012357;28;20418;-78
2022/12/28 02:57:25;;;;;;;11.20;4.33;;;5.10;99.90;;;;;;5012865;28;20520;-78
2022/12/28 03:00:21;;;;;;;7.63;4.00;;;5.10;99.90;;;;;;5010246;28;20908;-77
2022/12/28 03:03:25;;;;;;;6.60;4.50;;;5.10;99.90;;;;;;4998177;28;20293;-77
2022/12/28 03:09:10;;;;;;;9.37;4.27;;;5.10;99.90;;;;;;5008012;28;20410;-79
2022/12/28 03:11:46;;;;;;;10.07;4.20;;;5.20;99.90;;;;;;5009861;28;20940;-78
2022/12/28 03:14:19;;;;;;;6.20;3.77;;;5.20;99.90;;;;;;5014971;28;20449;-77
2022/12/28 03:31:07;;;;;;;9.80;4.87;;;5.30;99.90;;;;;;5015553;28;20465;-78
2022/12/28 03:33:52;;;;;;;9.20;5.70;;;5.30;99.90;;;;;;4991225;28;20469;-78
2022/12/28 03:36:28;;;;;;;10.80;5.20;;;5.30;99.90;;;;;;5008770;28;20438;-79
2022/12/28 03:38:59;;;;;;;9.30;6.20;;;5.30;99.90;;;;;;5004569;28;20429;-78
2022/12/28 03:41:39;;;;;;;12.23;6.03;;;5.40;99.90;;;;;;4991894;28;20454;-77
2022/12/28 03:44:26;;;;;;;11.40;6.37;;;5.30;99.90;;;;;;5006757;28;20824;-79
2022/12/28 03:46:58;;;;;;;10.40;6.50;;;5.40;99.90;;;;;;5006241;28;20410;-78
2022/12/28 03:49:26;;;;;;;9.73;7.10;;;5.40;99.90;;;;;;4989621;28;20426;-79
2022/12/28 03:51:54;;;;;;;6.77;5.00;;;5.40;99.90;;;;;;5005453;28;20530;-76
2022/12/28 03:54:20;;;;;;;7.57;6.63;;;5.40;99.90;;;;;;4986600;28;20461;-77
2022/12/28 03:56:47;;;;;;;10.97;7.30;;;5.50;99.90;;;;;;5006241;28;20434;-77
2022/12/28 03:59:14;;;;;;;11.10;6.73;;;5.50;99.90;;;;;;4991640;28;20418;-79
2022/12/28 04:01:43;;;;;;;11.30;6.73;;;5.50;99.90;;;;;;5007194;28;20496;-78
2022/12/28 04:04:09;;;;;;;11.43;7.30;;;5.60;99.90;;;;;;4996980;28;20959;-77
2022/12/28 04:06:35;;;;;;;10.70;7.63;;;5.50;99.90;;;;;;4993060;28;20437;-77
2022/12/28 04:09:02;;;;;;;11.33;7.73;;;5.50;99.90;;;;;;4996267;28;20501;-77
2022/12/28 04:11:31;;;;;;;12.20;9.13;;;5.50;99.90;;;;;;5007099;28;20447;-78
2022/12/28 04:13:58;;;;;;;12.53;7.70;;;5.50;99.90;;;;;;5001637;28;20495;-77
2022/12/28 04:16:26;;;;;;;13.83;8.03;;;5.50;99.90;;;;;;4996874;28;20438;-78
2022/12/28 04:18:52;;;;;;;14.50;9.13;;;5.50;99.90;;;;;;4996380;28;20414;-77
2022/12/28 04:21:18;;;;;;;11.83;9.20;;;5.50;99.90;;;;;;5004240;28;20601;-77
2022/12/28 04:23:44;;;;;;;11.33;8.23;;;5.50;99.90;;;;;;5013706;28;20458;-78
2022/12/28 04:26:16;;;;;;;8.90;7.43;;;5.50;99.90;;;;;;5009620;28;20476;-78
2022/12/28 04:28:43;;;;;;;10.17;8.00;;;5.60;99.90;;;;;;5013428;28;20434;-78
2022/12/28 04:31:28;;;;;;;11.80;8.50;;;5.60;99.90;;;;;;5008328;28;20480;-76
2022/12/28 04:34:05;;;;;;;9.47;8.57;;;5.60;99.90;;;;;;5013472;28;20540;-79
2022/12/28 04:36:34;;;;;;;9.87;8.10;;;5.60;99.90;;;;;;5011952;28;20432;-78
2022/12/28 04:39:01;;;;;;;13.47;9.23;;;5.70;99.90;;;;;;5020298;28;20528;-78
2022/12/28 04:41:27;;;;;;;13.00;10.07;;;5.70;99.90;;;;;;5010147;28;20467;-79
2022/12/28 04:43:58;;;;;;;13.70;10.03;;;5.60;99.90;;;;;;5014452;28;20674;-78
2022/12/28 04:46:23;;;;;;;12.37;9.30;;;5.70;99.90;;;;;;4992845;28;20229;-77
2022/12/28 04:48:49;;;;;;;12.33;8.30;;;5.70;99.90;;;;;;5015399;28;20480;-77
2022/12/28 04:51:18;;;;;;;11.47;9.43;;;5.70;99.90;;;;;;4993775;28;20180;-77
2022/12/28 04:53:43;;;;;;;10.27;8.80;;;5.70;99.90;;;;;;5016501;28;20690;-78
2022/12/28 04:56:10;;;;;;;11.67;9.00;;;5.70;99.90;;;;;;5013245;28;20476;-78
2022/12/28 04:58:36;;;;;;;11.37;8.67;;;5.70;99.90;;;;;;5011667;28;20360;-77
2022/12/28 05:01:04;;;;;;;11.60;8.23;;;5.70;99.90;;;;;;5016008;28;20438;-79
2022/12/28 05:03:29;;;;;;;9.90;8.07;;;5.80;99.90;;;;;;5008672;28;20472;-78
2022/12/28 05:06:02;;;;;;;11.10;8.10;;;5.80;99.90;;;;;;5014705;28;20519;-77
2022/12/28 05:08:29;;;;;;;7.97;7.00;;;5.90;99.90;;;;;;5012054;28;20179;-80
2022/12/28 05:10:59;;;;;;;9.40;7.60;;;5.90;99.90;;;;;;5014218;28;20852;-77
2022/12/28 05:13:25;;;;;;;10.87;7.10;;;5.80;99.90;;;;;;5014207;28;20980;-77
2022/12/28 05:15:50;;;;;;;9.30;7.70;;;5.90;99.90;;;;;;4995951;28;20438;-78
2022/12/28 05:18:16;;;;;;;11.00;6.70;;;5.90;99.90;;;;;;5010901;28;20773;-77
2022/12/28 05:20:41;;;;;;;9.23;6.73;;;5.90;99.90;;;;;;5010890;28;20814;-77
2022/12/28 05:23:07;;;;;;;8.40;6.20;;;5.90;99.90;;;;;;4997393;28;20214;-76
2022/12/28 05:25:32;;;;;;;8.03;7.00;;;5.90;99.90;;;;;;5008933;28;20274;-78
2022/12/28 05:27:58;;;;;;;8.10;7.30;;;6.00;99.90;;;;;;5015179;28;20202;-77
2022/12/28 05:30:24;;;;;;;9.67;6.90;;;6.00;99.90;;;;;;5017336;28;20691;-79
2022/12/28 05:32:49;;;;;;;8.60;6.60;;;6.00;99.90;;;;;;5012030;28;20205;-80
2022/12/28 05:35:17;;;;;;;8.53;6.47;;;6.00;99.90;;;;;;5013282;28;20739;-79
2022/12/28 05:37:42;;;;;;;7.57;6.20;;;6.00;99.90;;;;;;4999434;28;20273;-80
2022/12/28 05:40:08;;;;;;;7.00;5.53;;;6.00;99.90;;;;;;5018083;28;20501;-79
2022/12/28 05:42:35;;;;;;;8.10;5.60;;;6.00;99.90;;;;;;5016973;28;20203;-79
2022/12/28 05:45:00;;;;;;;7.63;6.00;;;6.00;99.90;;;;;;5001749;28;20445;-80
2022/12/28 05:47:26;;;;;;;8.93;6.93;;;6.00;99.90;;;;;;5012798;28;20434;-80
2022/12/28 05:49:52;;;;;;;9.87;6.33;;;6.10;99.90;;;;;;5009814;28;20532;-78
2022/12/28 05:52:17;;;;;;;8.57;5.50;;;6.10;99.90;;;;;;5013848;28;20476;-80
2022/12/28 05:54:43;;;;;;;7.03;5.30;;;6.10;99.90;;;;;;4998894;28;20185;-78
2022/12/28 05:57:09;;;;;;;7.70;6.40;;;6.10;99.90;;;;;;5017078;28;20176;-80
2022/12/28 05:59:34;;;;;;;7.60;5.17;;;6.20;99.90;;;;;;5013215;28;20191;-78
2022/12/28 06:02:00;;;;;;;7.00;5.77;;;6.20;99.90;;;;;;5011153;28;20249;-80
2022/12/28 06:04:25;;;;;;;5.73;4.40;;;6.20;99.90;;;;;;5013399;28;20175;-80
2022/12/28 06:06:53;;;;;;;6.07;4.93;;;6.20;99.90;;;;;;5005051;28;21697;-76
2022/12/28 06:09:18;;;;;;;5.60;4.77;;;6.30;99.90;;;;;;5004373;28;20187;-78
2022/12/28 06:11:45;;;;;;;6.20;5.60;;;6.30;99.90;;;;;;5005468;28;20434;-78
2022/12/28 06:14:10;;;;;;;7.30;5.50;;;6.40;99.90;;;;;;4995532;28;20196;-76
2022/12/28 06:16:39;;;;;;;5.57;4.90;;;6.40;99.90;;;;;;5014705;28;20430;-77
2022/12/28 06:19:07;;;;;;;7.37;5.40;;;6.40;99.90;;;;;;5011051;28;20198;-78
2022/12/28 06:21:35;;;;;;;5.03;4.30;;;6.50;99.90;;;;;;5012971;28;20492;-77
2022/12/28 06:24:01;;;;;;;6.10;5.50;;;6.50;99.90;;;;;;5010791;28;20537;-77
2022/12/28 06:26:30;;;;;;;9.30;5.40;;;6.50;99.90;;;;;;5011038;28;20877;-76
2022/12/28 06:28:56;;;;;;;6.50;5.70;;;6.50;99.90;;;;;;5031182;23;20481;-80
2022/12/28 06:31:27;;;;;;;7.73;5.83;;;6.50;99.90;;;;;;5004121;28;20449;-80
2022/12/28 06:33:55;;;;;;;8.50;6.30;;;6.50;99.90;;;;;;5024792;28;20452;-80
2022/12/28 06:36:42;;;;;;;6.33;5.27;;;6.50;99.90;;;;;;5012205;28;20508;-81
2022/12/28 06:39:10;;;;;;;6.40;5.57;;;6.60;99.90;;;;;;5013058;28;21041;-80
2022/12/28 06:41:36;;;;;;;7.13;6.43;;;6.70;99.90;;;;;;5013504;28;20434;-79
2022/12/28 06:44:06;;;;;;;7.67;5.97;;;6.70;99.90;;;;;;5007592;28;20449;-80
2022/12/28 06:46:31;;;;;;;8.70;6.27;;;6.70;99.90;;;;;;5010894;28;20438;-79
2022/12/28 06:48:58;;;;;;;7.10;6.30;;;6.70;99.90;;;;;;5005420;28;20465;-80
2022/12/28 06:51:31;;;;;;;6.70;5.47;;;6.70;99.90;;;;;;4999816;28;20179;-80
2022/12/28 06:53:57;;;;;;;7.23;6.50;;;6.70;99.90;;;;;;4995894;28;20805;-81
2022/12/28 06:56:26;;;;;;;7.73;6.60;;;6.80;99.90;;;;;;5013083;28;20437;-80
2022/12/28 06:58:53;;;;;;;6.80;5.90;;;6.80;99.90;;;;;;4995304;28;20195;-80
2022/12/28 07:01:22;;;;;;;7.93;7.20;;;6.80;99.90;;;;;;5014274;28;20458;-80
2022/12/28 07:03:49;;;;;;;8.50;7.37;;;6.80;99.90;;;;;;4999349;28;20580;-80
2022/12/28 07:06:17;;;;;;;9.53;8.10;;;6.80;99.90;;;;;;5011550;28;20434;-80
2022/12/28 07:08:43;;;;;;;7.80;7.00;;;6.80;99.90;;;;;;4992627;28;20439;-79
2022/12/28 07:11:14;;;;;;;11.47;8.30;;;6.90;99.90;;;;;;4992527;28;20438;-80
2022/12/28 07:13:41;;;;;;;9.30;8.30;;;6.90;99.90;;;;;;4993380;28;20468;-79
2022/12/28 07:16:10;;;;;;;10.00;7.90;;;6.90;99.90;;;;;;4993293;28;20868;-81
2022/12/28 07:18:37;;;;;;;10.10;9.10;;;6.90;99.90;;;;;;5010668;28;20457;-79
2022/12/28 07:21:14;;;;;;;10.50;9.40;;;6.90;99.90;;;;;;5010539;28;20430;-78
2022/12/28 07:23:40;;;;;;;12.40;10.00;;;7.00;99.90;;;;;;4989261;28;20552;-78
2022/12/28 07:26:14;;;;;;;14.37;12.87;;;7.10;99.90;;;;;;4991379;28;20503;-78
2022/12/28 07:28:42;;;;;;;12.60;11.30;;;7.10;99.90;;;;;;5006564;28;20507;-79
2022/12/28 07:31:09;;;;;;;11.33;10.17;;;7.10;99.90;;;;;;5013985;28;20433;-79
2022/12/28 07:33:36;;;;;;;10.33;9.20;;;7.10;99.90;;;;;;5006790;28;20439;-78
2022/12/28 07:36:03;;;;;;;11.90;10.60;;;7.10;99.90;;;;;;4987701;28;20438;-79
2022/12/28 07:38:29;;;;;;;10.40;9.20;;;7.10;99.90;;;;;;5004502;28;20446;-79
2022/12/28 07:41:03;;;;;;;10.80;9.70;;;7.20;99.90;;;;;;4987090;28;20491;-78
2022/12/28 07:43:29;;;;;;;10.17;9.07;;;7.20;99.90;;;;;;4972111;28;20555;-78
2022/12/28 07:46:05;;;;;;;10.87;9.80;;;7.20;99.90;;;;;;5007047;28;20441;-79
2022/12/28 07:48:32;;;;;;;9.23;8.33;;;7.20;99.90;;;;;;5008935;28;20445;-81
2022/12/28 07:51:05;;;;;;;10.10;8.53;;;7.30;99.90;;;;;;5009311;28;20430;-78
2022/12/28 07:53:31;;;;;;;11.10;9.00;;;7.30;99.90;;;;;;5008505;28;20433;-78
2022/12/28 07:55:58;;;;;;;10.73;7.90;;;7.30;99.90;;;;;;4992353;28;20488;-78
2022/12/28 07:58:23;;;;;;;10.37;9.37;;;7.30;99.90;;;;;;5010335;28;20195;-79
2022/12/28 08:00:50;;;;;;;8.97;8.13;;;7.30;99.90;;;;;;4994443;28;20422;-79
2022/12/28 08:03:16;;;;;;;11.13;10.03;;;7.30;99.90;;;;;;5007218;28;20462;-78
2022/12/28 08:05:42;;;;;;;10.87;9.80;;;7.30;99.90;;;;;;4990495;28;20427;-78
2022/12/28 08:08:08;;;;;;;10.80;9.40;;;7.40;99.90;;;;;;5003702;28;21035;-77
2022/12/28 08:10:33;;;;;;;9.97;8.90;;;7.40;99.90;;;;;;5001881;28;20168;-79
2022/12/28 08:12:59;;;;;;;9.90;8.90;;;7.40;99.90;;;;;;5014161;28;20183;-79
2022/12/28 08:15:25;;;;;;;10.40;7.27;;;7.40;99.90;;;;;;5008474;28;20171;-79
2022/12/28 08:17:53;;;;;;;9.50;8.37;;;7.50;99.90;;;;;;4994789;28;20488;-79
2022/12/28 08:20:19;;;;;;;9.13;8.17;;;7.40;99.90;;;;;;5013317;28;20430;-80
2022/12/28 08:22:44;;;;;;;7.57;6.77;;;7.50;99.90;;;;;;4990964;28;20458;-78
2022/12/28 08:25:10;;;;;;;7.63;6.87;;;7.50;99.90;;;;;;5006418;28;20234;-79
2022/12/28 08:27:35;;;;;;;8.33;7.43;;;7.50;99.90;;;;;;5005206;28;20174;-78
2022/12/28 08:30:01;;;;;;;8.13;7.33;;;7.50;99.90;;;;;;5003919;28;20323;-78
2022/12/28 08:32:26;;;;;;;8.43;7.53;;;7.60;99.90;;;;;;5006117;28;20183;-78
2022/12/28 08:34:52;;;;;;;8.00;7.00;;;7.60;99.90;;;;;;5005521;28;20168;-78
2022/12/28 08:37:17;;;;;;;8.57;7.67;;;7.60;99.90;;;;;;5005780;28;20179;-78
2022/12/28 08:39:43;;;;;;;7.87;6.80;;;7.60;99.90;;;;;;5005457;28;20202;-77
2022/12/28 08:42:09;;;;;;;8.03;5.87;;;7.70;99.90;;;;;;4998046;28;20221;-76
2022/12/28 08:44:34;;;;;;;6.10;5.50;;;7.70;99.90;;;;;;5009398;28;20174;-77
2022/12/28 08:47:00;;;;;;;6.57;5.97;;;7.80;99.90;;;;;;4990463;28;20186;-77
2022/12/28 08:49:25;;;;;;;6.73;5.97;;;7.80;99.90;;;;;;5002418;28;20346;-76
2022/12/28 08:51:51;;;;;;;6.30;5.80;;;7.90;99.90;;;;;;5007608;28;20190;-76
2022/12/28 08:54:17;;;;;;;6.10;5.50;;;7.90;99.90;;;;;;5003868;28;20177;-77
2022/12/28 08:56:44;;;;;;;6.50;5.30;;;7.90;99.90;;;;;;5008696;28;20258;-75
2022/12/28 08:59:15;;;;;;;5.80;5.10;;;8.00;99.90;;;;;;5008942;28;20218;-80
2022/12/28 09:01:41;;;;;;;5.87;5.27;;;7.90;99.90;;;;;;5016126;28;20480;-80
2022/12/28 09:04:12;;;;;;;6.70;5.97;;;8.00;99.90;;;;;;5015252;28;20913;-80
2022/12/28 09:06:38;;;;;;;5.33;4.83;;;8.00;99.90;;;;;;5016378;28;20179;-82
2022/12/28 09:09:06;;;;;;;6.10;5.60;;;8.10;99.90;;;;;;4996883;28;20453;-76
2022/12/28 09:11:33;;;;;;;6.47;5.37;;;8.00;99.90;;;;;;5010733;28;20441;-77
2022/12/28 09:14:00;;;;;;;5.70;5.20;;;8.00;99.90;;;;;;4989020;28;20421;-77
2022/12/28 09:16:27;;;;;;;8.30;5.60;;;8.00;99.90;;;;;;5001673;28;20418;-76
2022/12/28 09:18:58;;;;;;;9.10;5.80;;;8.10;99.90;;;;;;5008604;28;20450;-76
2022/12/28 09:21:25;;;;;;;5.30;4.90;;;8.20;99.90;;;;;;5009319;28;20933;-77
2022/12/28 09:23:51;;;;;;;6.43;5.93;;;8.10;99.90;;;;;;5004573;28;20469;-76
2022/12/28 09:26:22;;;;;;;7.33;6.53;;;8.10;99.90;;;;;;5007454;28;20433;-76
2022/12/28 09:28:50;;;;;;;8.37;7.40;;;8.10;99.90;;;;;;5002145;28;20290;-74
2022/12/28 09:31:17;;;;;;;11.10;9.93;;;8.10;99.90;;;;;;5002167;28;20466;-74
2022/12/28 09:33:57;;;;;;;14.07;11.87;;;8.00;99.90;;;;;;5007812;28;20417;-74
2022/12/28 09:36:24;;;;;;;11.30;10.10;;;8.10;99.90;;;;;;5006386;28;20480;-73
2022/12/28 09:38:50;;;;;;;9.60;8.60;;;8.10;99.90;;;;;;5001012;28;20888;-74
2022/12/28 09:41:29;;;;;;;10.90;10.00;;;8.10;99.90;;;;;;4997006;28;20435;-74
2022/12/28 09:44:16;;;;;;;9.33;8.50;;;8.10;99.90;;;;;;4983019;28;20453;-74
2022/12/28 09:46:51;;;;;;;8.60;7.70;;;8.10;99.90;;;;;;5004064;28;20425;-73
2022/12/28 09:49:19;;;;;;;8.87;8.07;;;8.10;99.90;;;;;;5000194;28;20953;-74
2022/12/28 09:52:03;;;;;;;9.90;8.90;;;8.10;99.90;;;;;;5006826;28;20458;-73
2022/12/28 09:54:28;;;;;;;10.97;9.90;;;8.10;99.90;;;;;;5008418;28;20438;-73
2022/12/28 09:56:54;;;;;;;10.13;9.13;;;8.10;99.90;;;;;;4997658;28;20433;-74
2022/12/28 09:59:23;;;;;;;9.77;8.87;;;8.10;99.90;;;;;;5004018;28;20227;-73
2022/12/28 10:01:55;;;;;;;11.00;10.00;;;8.10;99.90;;;;;;4998752;28;20205;-74
2022/12/28 10:04:21;;;;;;;10.70;9.40;;;8.20;99.90;;;;;;5004265;28;20836;-74
2022/12/28 10:06:47;;;;;;;10.40;9.40;;;8.10;99.90;;;;;;5005528;28;20421;-74
2022/12/28 10:09:23;;;;;;;11.47;9.90;;;8.20;99.90;;;;;;5004954;28;20545;-74
2022/12/28 10:11:49;;;;;;;10.13;9.13;;;8.20;99.90;;;;;;4988064;28;20253;-74
2022/12/28 10:14:26;;;;;;;11.47;9.60;;;8.20;99.90;;;;;;5004231;28;20462;-74
2022/12/28 10:16:53;;;;;;;15.77;13.03;;;8.20;99.90;;;;;;5004279;28;20171;-74
2022/12/28 10:19:24;;;;;;;11.00;9.47;;;8.30;99.90;;;;;;5001070;28;20580;-73
2022/12/28 10:22:03;;;;;;;16.97;15.13;;;8.30;99.90;;;;;;5004996;28;20941;-74
2022/12/28 10:24:29;;;;;;;15.20;12.10;;;8.40;99.90;;;;;;5006905;28;20426;-74
2022/12/28 10:26:57;;;;;;;11.97;10.80;;;8.30;99.90;;;;;;4986094;28;20839;-74
2022/12/28 10:29:24;;;;;;;10.37;9.27;;;8.30;99.90;;;;;;5001603;28;20496;-74
2022/12/28 10:31:56;;;;;;;10.80;9.70;;;8.40;99.90;;;;;;5002456;28;20944;-74
2022/12/28 10:34:21;;;;;;;10.40;9.40;;;8.40;99.90;;;;;;4983048;28;20441;-74
2022/12/28 10:36:49;;;;;;;14.63;13.00;;;8.40;99.90;;;;;;4998841;28;20427;-74
2022/12/28 10:39:20;;;;;;;32.20;25.73;;;8.40;99.90;;;;;;5007464;28;20561;-75
2022/12/28 10:41:47;;;;;;;11.20;10.10;;;8.40;99.90;;;;;;5005367;28;20472;-75
2022/12/28 10:44:31;;;;;;;11.30;10.10;;;8.40;99.90;;;;;;5001813;28;20421;-75
2022/12/28 10:47:04;;;;;;;13.07;9.83;;;8.50;99.90;;;;;;5002681;28;20457;-75
2022/12/28 10:49:36;;;;;;;9.37;8.47;;;8.50;99.90;;;;;;4986693;28;20983;-74
2022/12/28 10:52:13;;;;;;;12.20;9.93;;;8.40;99.90;;;;;;5006140;28;20425;-74
2022/12/28 10:54:39;;;;;;;7.70;7.00;;;8.50;99.90;;;;;;5003844;28;20860;-75
2022/12/28 10:57:05;;;;;;;9.43;7.63;;;8.50;99.90;;;;;;5004134;28;20457;-75
2022/12/28 10:59:31;;;;;;;8.37;7.57;;;8.50;99.90;;;;;;4997793;28;20270;-75
2022/12/28 11:02:27;;;;;;;8.70;7.30;;;8.60;99.90;;;;;;5003501;28;20178;-75
2022/12/28 11:04:54;;;;;;;19.47;17.43;;;8.60;99.90;;;;;;5007820;28;20434;-75
2022/12/28 11:07:47;;;;;;;9.47;8.67;;;8.60;99.90;;;;;;5005548;28;20979;-75
2022/12/28 11:10:26;;;;;;;8.20;7.40;;;8.50;99.90;;;;;;5004757;28;20839;-75
2022/12/28 11:12:54;;;;;;;8.40;7.60;;;8.60;99.90;;;;;;5009202;28;20488;-75
2022/12/28 11:15:27;;;;;;;9.00;8.10;;;8.60;99.90;;;;;;5006246;28;20448;-74
2022/12/28 11:17:55;;;;;;;8.63;7.87;;;8.60;99.90;;;;;;5005685;28;20794;-75
2022/12/28 11:20:25;;;;;;;8.50;7.60;;;8.60;99.90;;;;;;4992284;28;20818;-75
2022/12/28 11:22:51;;;;;;;9.40;8.50;;;8.60;99.90;;;;;;5006624;28;20492;-75
2022/12/28 11:25:20;;;;;;;9.63;8.50;;;8.60;99.90;;;;;;5007396;28;20441;-75
2022/12/28 11:27:46;;;;;;;9.10;8.20;;;8.60;99.90;;;;;;5001485;28;20449;-75
2022/12/28 11:30:17;;;;;;;9.30;8.40;;;8.60;99.90;;;;;;5007071;28;20536;-75
2022/12/28 11:32:53;;;;;;;7.03;6.43;;;8.60;99.90;;;;;;5000215;28;20476;-75
2022/12/28 11:35:23;;;;;;;6.17;5.67;;;8.70;99.90;;;;;;5005113;28;20430;-74
2022/12/28 11:37:55;;;;;;;6.73;6.17;;;8.70;99.90;;;;;;5003826;28;20529;-75
2022/12/28 11:46:24;;;;;;;3.77;3.47;;;9.50;99.90;;;;;;5051661;28;20686;-69
2022/12/28 11:49:00;;;;;;;3.37;3.07;;;9.50;99.90;;;;;;5039844;28;20431;-69
2022/12/28 11:51:31;;;;;;;2.97;2.70;;;9.30;99.90;;;;;;5058056;28;20939;-69
2022/12/28 11:56:18;;;;;;;3.87;3.47;;;9.00;99.90;;;;;;5124971;27;20558;-73
2022/12/28 12:01:35;;;;;;;2.83;2.53;;;8.90;99.90;;;;;;5074005;28;20616;-74
2022/12/28 12:04:04;;;;;;;2.00;1.67;;;8.80;99.90;;;;;;5030880;28;20990;-75
2022/12/28 12:06:42;;;;;;;2.33;2.13;;;8.80;99.90;;;;;;5046052;28;20497;-74
2022/12/28 12:09:20;;;;;;;1.73;1.63;;;8.80;99.90;;;;;;5051148;28;21073;-75
2022/12/28 12:11:50;;;;;;;2.00;1.73;;;8.80;99.90;;;;;;5043603;28;20424;-75
2022/12/28 12:14:22;;;;;;;1.50;1.23;;;8.70;99.90;;;;;;5036018;28;20443;-76
2022/12/28 12:17:02;;;;;;;1.67;1.37;;;8.70;99.90;;;;;;5068721;28;20952;-75
2022/12/28 12:19:35;;;;;;;1.70;1.40;;;8.70;99.90;;;;;;5027430;28;20459;-75
2022/12/28 12:22:11;;;;;;;1.60;1.10;;;8.70;99.90;;;;;;5040889;28;20435;-74
2022/12/28 12:25:01;;;;;;;2.57;2.17;;;8.70;99.90;;;;;;5042973;28;20434;-73
2022/12/28 12:27:37;;;;;;;2.67;2.47;;;8.70;99.90;;;;;;5017080;28;20435;-74
2022/12/28 12:30:22;;;;;;;1.97;1.77;;;8.70;99.90;;;;;;5042804;28;20535;-73
2022/12/28 12:33:04;;;;;;;2.07;1.80;;;8.70;99.90;;;;;;5038549;28;20490;-74
2022/12/28 12:35:54;;;;;;;4.13;3.83;;;8.60;99.90;;;;;;5039965;28;20529;-73
2022/12/28 12:38:39;;;;;;;2.57;2.37;;;8.60;99.90;;;;;;4939333;28;20500;-75
2022/12/28 12:41:20;;;;;;;4.13;3.70;;;8.60;99.90;;;;;;5049170;28;20675;-75
2022/12/28 12:43:55;;;;;;;3.20;2.83;;;8.70;99.90;;;;;;5038024;28;20830;-75
2022/12/28 12:46:30;;;;;;;2.90;2.60;;;8.70;99.90;;;;;;5054330;28;20518;-74
2022/12/28 12:49:18;;;;;;;2.33;1.77;;;8.70;99.90;;;;;;5041535;28;20433;-74
2022/12/28 12:51:58;;;;;;;3.07;2.77;;;8.70;99.90;;;;;;5047521;28;20434;-76
2022/12/28 12:54:35;;;;;;;2.70;2.50;;;8.70;99.90;;;;;;5063106;28;20448;-76
2022/12/28 12:57:06;;;;;;;2.30;1.80;;;8.70;99.90;;;;;;5063989;28;20423;-75
2022/12/28 12:59:54;;;;;;;2.13;1.93;;;8.70;99.90;;;;;;5060376;28;20949;-76
2022/12/28 13:02:31;;;;;;;2.50;2.03;;;8.70;99.90;;;;;;5057580;28;20947;-75
2022/12/28 13:05:02;;;;;;;2.00;1.80;;;8.70;99.90;;;;;;5053588;28;20460;-76
2022/12/28 13:07:28;;;;;;;2.97;2.67;;;8.70;99.90;;;;;;5064268;28;20447;-77
2022/12/28 13:09:58;;;;;;;2.47;2.17;;;8.70;99.90;;;;;;5061209;28;20426;-76
2022/12/28 13:12:24;;;;;;;1.67;1.43;;;8.70;99.90;;;;;;5054232;28;20448;-76
2022/12/28 13:15:01;;;;;;;2.60;2.33;;;8.70;99.90;;;;;;5038325;28;20947;-76
2022/12/28 13:17:28;;;;;;;2.40;2.07;;;8.60;99.90;;;;;;5047737;28;20430;-76
2022/12/28 13:20:26;;;;;;;2.20;2.00;;;8.60;99.90;;;;;;5045239;28;20462;-76
2022/12/28 13:22:53;;;;;;;3.03;2.73;;;8.60;99.90;;;;;;4987644;28;20459;-75
2022/12/28 13:25:23;;;;;;;3.27;2.97;;;8.60;99.90;;;;;;5036182;28;20423;-75
2022/12/28 13:27:49;;;;;;;2.63;2.43;;;8.60;99.90;;;;;;5054126;28;20538;-75
2022/12/28 13:30:19;;;;;;;2.40;2.20;;;8.60;99.90;;;;;;5032931;28;20562;-75
2022/12/28 13:32:54;;;;;;;2.67;2.47;;;8.60;99.90;;;;;;5031539;28;20219;-76
2022/12/28 13:35:23;;;;;;;4.20;3.77;;;8.60;99.90;;;;;;5027459;28;20484;-75
2022/12/28 13:38:11;;;;;;;2.57;2.37;;;8.60;99.90;;;;;;5026984;28;20490;-75
2022/12/28 13:40:38;;;;;;;2.30;2.10;;;8.60;99.90;;;;;;5032716;28;20490;-75
2022/12/28 13:43:28;;;;;;;2.60;1.80;;;8.60;99.90;;;;;;5059301;28;20937;-75
2022/12/28 13:45:59;;;;;;;2.50;2.30;;;8.60;99.90;;;;;;5056711;28;20466;-75